createdAt,value
2023-05-11T10:45:45.161Z,2795.63
2023-05-11T10:46:45.555Z,2368.13
2023-05-11T10:48:40.237Z,478.13
2023-05-11T10:49:40.646Z,590.63
2023-05-11T10:51:35.313Z,613.13
2023-05-11T10:52:35.748Z,1108.13
2023-05-11T10:54:30.400Z,483.75
2023-05-11T10:55:30.842Z,1288.13
2023-05-11T10:56:31.295Z,1811.25
2023-05-11T10:57:33.622Z,2250.00
2023-05-11T10:58:32.191Z,2368.13
2023-05-11T10:59:32.644Z,1665.00
2023-05-11T11:00:33.147Z,2182.50
2023-05-11T11:01:33.599Z,551.25
2023-05-11T11:02:34.038Z,450.00
2023-05-11T11:03:34.450Z,393.75
2023-05-11T11:04:34.903Z,371.25
2023-05-11T11:05:35.397Z,399.38
2023-05-11T11:06:35.796Z,444.38
2023-05-11T11:07:36.256Z,720.00
2023-05-11T11:08:36.700Z,956.25
2023-05-11T11:09:37.145Z,2548.13
2023-05-11T11:10:37.771Z,2503.13
2023-05-11T11:11:38.049Z,2553.75
2023-05-11T11:12:38.497Z,2587.50
2023-05-11T11:13:39.004Z,2536.88
2023-05-11T11:14:39.407Z,2295.00
2023-05-11T11:15:42.609Z,1811.25
2023-05-11T11:16:40.343Z,995.63
2023-05-11T11:17:40.789Z,883.13
2023-05-11T11:18:41.236Z,821.25
2023-05-11T11:19:41.656Z,821.25
2023-05-11T11:20:42.107Z,911.25
2023-05-11T11:21:42.596Z,939.38
2023-05-11T11:22:43.017Z,1057.50
2023-05-11T11:23:43.471Z,1327.50
2023-05-11T11:24:43.933Z,1310.63
2023-05-11T11:25:44.394Z,1181.25
2023-05-11T11:26:44.844Z,1051.88
2023-05-11T11:27:45.337Z,1344.38
2023-05-11T11:28:45.767Z,1451.25
2023-05-11T11:29:46.222Z,1569.38
2023-05-11T11:30:46.698Z,461.25
2023-05-11T11:31:47.122Z,1333.13
2023-05-11T11:32:47.595Z,618.75
2023-05-11T11:33:48.048Z,326.25
2023-05-11T11:34:48.493Z,292.50
2023-05-11T11:35:49.112Z,270.00
2023-05-11T11:36:49.410Z,253.13
2023-05-11T11:37:49.855Z,253.13
2023-05-11T11:38:50.316Z,270.00
2023-05-11T11:39:50.760Z,286.88
2023-05-11T11:40:52.322Z,303.75
2023-05-11T11:41:51.654Z,337.50
2023-05-11T11:42:52.102Z,360.00
2023-05-11T11:43:52.583Z,399.38
2023-05-11T11:44:52.997Z,433.13
2023-05-11T11:45:53.446Z,438.75
2023-05-11T11:46:53.993Z,444.38
2023-05-11T11:47:54.360Z,433.13
2023-05-11T11:48:55.077Z,399.38
2023-05-11T11:49:55.228Z,365.63
2023-05-11T11:50:55.677Z,343.13
2023-05-11T11:51:56.142Z,320.63
2023-05-11T11:52:56.571Z,343.13
2023-05-11T11:53:58.967Z,326.25
2023-05-11T11:54:57.453Z,331.88
2023-05-11T11:55:57.902Z,337.50
2023-05-11T11:56:58.343Z,348.75
2023-05-11T11:57:58.793Z,360.00
2023-05-11T11:58:59.232Z,371.25
2023-05-11T11:59:59.671Z,393.75
2023-05-11T12:01:00.140Z,410.63
2023-05-11T12:02:00.562Z,421.88
2023-05-11T12:03:01.092Z,438.75
2023-05-11T12:04:01.603Z,455.63
2023-05-11T12:05:01.936Z,466.88
2023-05-11T12:06:02.347Z,472.50
2023-05-11T12:07:02.773Z,472.50
2023-05-11T12:08:03.220Z,472.50
2023-05-11T12:09:03.662Z,455.63
2023-05-11T12:10:04.179Z,438.75
2023-05-11T12:11:04.544Z,427.50
2023-05-11T12:12:05.001Z,416.25
2023-05-11T12:13:05.428Z,416.25
2023-05-11T12:14:05.884Z,427.50
2023-05-11T12:15:06.312Z,421.88
2023-05-11T12:16:06.766Z,410.63
2023-05-11T12:17:07.203Z,376.88
2023-05-11T12:18:07.685Z,360.00
2023-05-11T12:19:08.110Z,354.38
2023-05-11T12:20:08.585Z,354.38
2023-05-11T12:21:08.966Z,360.00
2023-05-11T12:22:09.409Z,337.50
2023-05-11T12:23:09.862Z,320.63
2023-05-11T12:24:11.153Z,326.25
2023-05-11T12:25:10.726Z,331.88
2023-05-11T12:26:11.188Z,337.50
2023-05-11T12:27:11.618Z,343.13
2023-05-11T12:28:12.060Z,337.50
2023-05-11T12:29:12.553Z,320.63
2023-05-11T12:30:12.948Z,326.25
2023-05-11T12:31:13.389Z,331.88
2023-05-11T12:32:14.132Z,326.25
2023-05-11T12:33:14.309Z,303.75
2023-05-11T12:34:14.720Z,303.75
2023-05-11T12:35:15.155Z,303.75
2023-05-11T12:36:15.600Z,292.50
2023-05-11T12:37:16.041Z,258.75
2023-05-11T12:38:16.482Z,264.38
2023-05-11T12:39:16.925Z,270.00
2023-05-11T12:40:17.365Z,286.88
2023-05-11T12:41:17.813Z,298.13
2023-05-11T12:42:18.253Z,303.75
2023-05-11T12:43:18.685Z,303.75
2023-05-11T12:44:19.129Z,309.38
2023-05-11T12:45:19.812Z,303.75
2023-05-11T12:46:20.056Z,303.75
2023-05-11T12:47:23.241Z,303.75
2023-05-11T12:50:28.686Z,320.63
2023-05-11T12:51:29.179Z,315.00
2023-05-11T12:52:22.767Z,309.38
2023-05-11T12:53:23.105Z,303.75
2023-05-11T12:54:38.307Z,303.75
2023-05-11T12:55:23.987Z,303.75
2023-05-11T12:56:24.431Z,298.13
2023-05-11T12:57:24.878Z,292.50
2023-05-11T12:58:25.319Z,281.25
2023-05-11T12:59:25.835Z,286.88
2023-05-11T13:00:26.188Z,292.50
2023-05-11T13:01:26.649Z,298.13
2023-05-11T13:02:27.136Z,315.00
2023-05-11T13:03:27.826Z,320.63
2023-05-11T13:04:27.947Z,326.25
2023-05-11T13:05:28.393Z,337.50
2023-05-11T13:06:28.854Z,348.75
2023-05-11T13:07:29.345Z,360.00
2023-05-11T13:08:29.716Z,365.63
2023-05-11T13:09:30.158Z,354.38
2023-05-11T13:10:30.600Z,348.75
2023-05-11T13:11:31.042Z,354.38
2023-05-11T13:12:32.528Z,348.75
2023-05-11T13:13:31.939Z,320.63
2023-05-11T13:14:32.362Z,326.25
2023-05-11T13:15:32.815Z,281.25
2023-05-11T13:16:33.356Z,264.38
2023-05-11T13:17:33.783Z,253.13
2023-05-11T13:18:34.154Z,247.50
2023-05-11T13:19:34.582Z,225.00
2023-05-11T13:20:35.043Z,213.75
2023-05-11T13:21:35.487Z,213.75
2023-05-11T13:22:35.906Z,219.38
2023-05-11T13:23:36.345Z,208.13
2023-05-11T13:24:37.707Z,208.13
2023-05-11T13:25:37.240Z,202.50
2023-05-11T13:26:37.673Z,208.13
2023-05-11T13:27:38.106Z,202.50
2023-05-11T13:28:38.549Z,202.50
2023-05-11T13:29:38.999Z,202.50
2023-05-11T13:30:39.438Z,208.13
2023-05-11T13:31:39.875Z,213.75
2023-05-11T13:32:40.370Z,219.38
2023-05-11T13:33:40.772Z,196.88
2023-05-11T13:34:41.221Z,202.50
2023-05-11T13:35:41.742Z,208.13
2023-05-11T13:36:42.097Z,202.50
2023-05-11T13:37:42.540Z,208.13
2023-05-11T13:38:42.966Z,225.00
2023-05-11T13:39:43.408Z,253.13
2023-05-11T13:40:43.864Z,264.38
2023-05-11T13:41:44.294Z,264.38
2023-05-11T13:42:44.732Z,258.75
2023-05-11T13:43:45.176Z,264.38
2023-05-11T13:44:45.624Z,281.25
2023-05-11T13:45:46.053Z,286.88
2023-05-11T13:46:46.647Z,281.25
2023-05-11T13:47:47.014Z,264.38
2023-05-11T13:48:47.396Z,253.13
2023-05-11T13:49:47.859Z,241.88
2023-05-11T13:50:48.269Z,247.50
2023-05-11T13:51:48.701Z,247.50
2023-05-11T13:52:49.142Z,230.63
2023-05-11T13:53:49.588Z,241.88
2023-05-11T13:54:50.032Z,230.63
2023-05-11T13:55:50.463Z,230.63
2023-05-11T13:56:50.908Z,247.50
2023-05-11T13:57:51.408Z,247.50
2023-05-11T13:58:51.845Z,247.50
2023-05-11T13:59:52.227Z,241.88
2023-05-11T14:01:06.673Z,247.50
2023-05-11T14:01:53.231Z,253.13
2023-05-11T14:02:53.738Z,241.88
2023-05-11T14:03:54.052Z,236.25
2023-05-11T14:04:54.443Z,225.00
2023-05-11T14:05:54.875Z,213.75
2023-05-11T14:06:55.326Z,208.13
2023-05-11T14:07:55.766Z,202.50
2023-05-11T14:08:56.218Z,202.50
2023-05-11T14:09:56.649Z,185.63
2023-05-11T14:10:57.082Z,191.25
2023-05-11T14:11:57.527Z,196.88
2023-05-11T14:12:57.971Z,196.88
2023-05-11T14:13:58.407Z,208.13
2023-05-11T14:14:58.849Z,219.38
2023-05-11T14:15:59.309Z,213.75
2023-05-11T14:16:59.795Z,219.38
2023-05-11T14:18:00.262Z,225.00
2023-05-11T14:19:00.637Z,225.00
2023-05-11T14:20:01.047Z,213.75
2023-05-11T14:21:01.518Z,208.13
2023-05-11T14:22:06.769Z,208.13
2023-05-11T14:23:02.380Z,225.00
2023-05-11T14:24:11.266Z,230.63
2023-05-11T14:25:03.278Z,225.00
2023-05-11T14:26:03.700Z,202.50
2023-05-11T14:27:04.135Z,230.63
2023-05-11T14:28:04.581Z,241.88
2023-05-11T14:29:05.074Z,241.88
2023-05-11T14:30:05.453Z,264.38
2023-05-11T14:31:05.976Z,270.00
2023-05-11T14:32:06.342Z,275.63
2023-05-11T14:33:06.802Z,258.75
2023-05-11T14:34:07.216Z,270.00
2023-05-11T14:35:07.710Z,253.13
2023-05-11T14:36:08.097Z,253.13
2023-05-11T14:37:11.253Z,247.50
2023-05-11T14:38:08.987Z,241.88
2023-05-11T14:39:09.424Z,236.25
2023-05-11T14:40:09.883Z,236.25
2023-05-11T14:41:10.309Z,230.63
2023-05-11T14:42:10.764Z,230.63
2023-05-11T14:43:25.768Z,225.00
2023-05-11T14:44:14.461Z,236.25
2023-05-11T14:45:12.070Z,241.88
2023-05-11T14:46:12.577Z,230.63
2023-05-11T14:47:12.946Z,230.63
2023-05-11T14:48:13.636Z,225.00
2023-05-11T14:49:24.855Z,225.00
2023-05-11T14:50:14.276Z,196.88
2023-05-11T14:51:14.731Z,213.75
2023-05-11T14:52:15.151Z,225.00
2023-05-11T14:53:15.616Z,219.38
2023-05-11T14:54:16.061Z,219.38
2023-05-11T14:55:16.631Z,219.38
2023-05-11T14:56:16.955Z,219.38
2023-05-11T14:57:17.588Z,219.38
2023-05-11T14:58:17.797Z,225.00
2023-05-11T14:59:19.794Z,225.00
2023-05-11T15:00:18.684Z,225.00
2023-05-11T15:01:19.180Z,230.63
2023-05-11T15:02:26.445Z,225.00
2023-05-11T15:03:20.052Z,202.50
2023-05-11T15:04:20.512Z,191.25
2023-05-11T15:05:20.980Z,191.25
2023-05-11T15:06:21.417Z,191.25
2023-05-11T15:07:21.779Z,191.25
2023-05-11T15:08:29.754Z,191.25
2023-05-11T15:09:22.650Z,191.25
2023-05-11T15:10:23.090Z,185.63
2023-05-11T15:11:23.543Z,185.63
2023-05-11T15:12:23.973Z,180.00
2023-05-11T15:13:24.434Z,168.75
2023-05-11T15:14:24.873Z,163.13
2023-05-11T15:15:25.307Z,157.50
2023-05-11T15:16:25.790Z,151.88
2023-05-11T15:17:26.202Z,140.63
2023-05-11T15:18:26.684Z,140.63
2023-05-11T15:19:27.061Z,146.25
2023-05-11T15:20:27.505Z,140.63
2023-05-11T15:21:27.944Z,140.63
2023-05-11T15:22:28.382Z,140.63
2023-05-11T15:23:28.844Z,146.25
2023-05-11T15:24:29.288Z,151.88
2023-05-11T15:25:29.702Z,157.50
2023-05-11T15:26:30.264Z,163.13
2023-05-11T15:27:30.582Z,174.38
2023-05-11T15:28:31.029Z,174.38
2023-05-11T15:29:31.465Z,180.00
2023-05-11T15:30:32.863Z,180.00
2023-05-11T15:31:32.428Z,191.25
2023-05-11T15:32:32.827Z,185.63
2023-05-11T15:33:33.258Z,180.00
2023-05-11T15:34:33.979Z,174.38
2023-05-11T15:35:34.118Z,168.75
2023-05-11T15:36:34.551Z,168.75
2023-05-11T15:37:35.013Z,163.13
2023-05-11T15:38:35.436Z,163.13
2023-05-11T15:39:35.873Z,163.13
2023-05-11T15:40:36.320Z,157.50
2023-05-11T15:41:36.773Z,151.88
2023-05-11T15:42:37.230Z,151.88
2023-05-11T15:43:37.692Z,146.25
2023-05-11T15:44:38.085Z,146.25
2023-05-11T15:45:38.583Z,146.25
2023-05-11T15:46:38.976Z,146.25
2023-05-11T15:47:39.434Z,146.25
2023-05-11T15:48:39.836Z,151.88
2023-05-11T15:49:40.285Z,151.88
2023-05-11T15:50:40.727Z,151.88
2023-05-11T15:51:41.156Z,168.75
2023-05-11T15:52:41.842Z,163.13
2023-05-11T15:53:42.095Z,151.88
2023-05-11T15:54:42.478Z,146.25
2023-05-11T15:55:42.917Z,151.88
2023-05-11T15:56:43.358Z,157.50
2023-05-11T15:57:43.829Z,135.00
2023-05-11T15:58:44.241Z,135.00
2023-05-11T15:59:44.688Z,129.38
2023-05-11T16:00:45.209Z,129.38
2023-05-11T16:01:45.626Z,123.75
2023-05-11T16:02:46.162Z,118.13
2023-05-11T16:03:47.266Z,112.50
2023-05-11T16:04:46.872Z,112.50
2023-05-11T16:05:47.357Z,112.50
2023-05-11T16:06:47.757Z,101.25
2023-05-11T16:07:48.206Z,95.63
2023-05-11T16:08:48.659Z,90.00
2023-05-11T16:09:49.092Z,90.00
2023-05-11T16:10:49.514Z,90.00
2023-05-11T16:11:49.956Z,84.38
2023-05-11T16:12:50.559Z,84.38
2023-05-11T16:13:50.839Z,84.38
2023-05-11T16:14:51.277Z,84.38
2023-05-11T16:15:51.716Z,90.00
2023-05-11T16:16:52.294Z,90.00
2023-05-11T16:17:52.689Z,95.63
2023-05-11T16:18:53.056Z,95.63
2023-05-11T16:19:53.470Z,101.25
2023-05-11T16:20:53.916Z,106.88
2023-05-11T16:21:54.350Z,106.88
2023-05-11T16:22:54.784Z,112.50
2023-05-11T16:23:55.221Z,118.13
2023-05-11T16:24:55.659Z,118.13
2023-05-11T16:25:56.105Z,118.13
2023-05-11T16:26:56.535Z,123.75
2023-05-11T16:27:56.979Z,123.75
2023-05-11T16:28:57.412Z,118.13
2023-05-11T16:29:57.848Z,118.13
2023-05-11T16:30:59.468Z,118.13
2023-05-11T16:31:58.817Z,118.13
2023-05-11T16:32:59.201Z,112.50
2023-05-11T16:33:59.606Z,112.50
2023-05-11T16:35:00.055Z,106.88
2023-05-11T16:36:00.543Z,106.88
2023-05-11T16:37:00.931Z,106.88
2023-05-11T16:38:01.357Z,106.88
2023-05-11T16:39:01.812Z,106.88
2023-05-11T16:40:02.242Z,106.88
2023-05-11T16:41:02.672Z,106.88
2023-05-11T16:42:03.124Z,106.88
2023-05-11T16:43:03.550Z,101.25
2023-05-11T16:44:03.997Z,101.25
2023-05-11T16:45:04.436Z,101.25
2023-05-11T16:46:04.889Z,101.25
2023-05-11T16:47:05.309Z,101.25
2023-05-11T16:48:05.773Z,101.25
2023-05-11T16:49:06.178Z,95.63
2023-05-11T16:50:06.617Z,95.63
2023-05-11T16:51:07.057Z,95.63
2023-05-11T16:52:07.498Z,95.63
2023-05-11T16:53:07.930Z,95.63
2023-05-11T16:54:08.419Z,90.00
2023-05-11T16:55:08.820Z,90.00
2023-05-11T16:56:09.246Z,90.00
2023-05-11T16:57:09.688Z,84.38
2023-05-11T16:58:10.132Z,84.38
2023-05-11T16:59:10.568Z,84.38
2023-05-11T17:00:11.003Z,84.38
2023-05-11T17:01:11.445Z,78.75
2023-05-11T17:02:12.218Z,78.75
2023-05-11T17:03:12.409Z,78.75
2023-05-11T17:04:12.827Z,78.75
2023-05-11T17:05:13.197Z,73.13
2023-05-11T17:06:13.659Z,73.13
2023-05-11T17:07:14.074Z,67.50
2023-05-11T17:08:14.510Z,67.50
2023-05-11T17:09:14.949Z,67.50
2023-05-11T17:10:15.399Z,67.50
2023-05-11T17:11:15.828Z,67.50
2023-05-11T17:12:16.279Z,61.88
2023-05-11T17:13:16.740Z,61.88
2023-05-11T17:14:17.140Z,61.88
2023-05-11T17:15:17.594Z,61.88
2023-05-11T17:16:18.084Z,61.88
2023-05-11T17:17:18.488Z,61.88
2023-05-11T17:18:18.969Z,61.88
2023-05-11T17:19:19.374Z,61.88
2023-05-11T17:20:20.012Z,56.25
2023-05-11T17:21:20.206Z,56.25
2023-05-11T17:22:20.649Z,56.25
2023-05-11T17:23:21.089Z,50.63
2023-05-11T17:24:21.549Z,50.63
2023-05-11T17:25:21.967Z,50.63
2023-05-11T17:26:27.245Z,50.63
2023-05-11T17:27:22.846Z,50.63
2023-05-11T17:28:23.278Z,50.63
2023-05-11T17:29:23.734Z,45.00
2023-05-11T17:30:32.943Z,45.00
2023-05-11T17:31:24.680Z,45.00
2023-05-11T17:32:25.405Z,45.00
2023-05-11T17:33:25.569Z,45.00
2023-05-11T17:34:28.299Z,45.00
2023-05-11T17:35:26.341Z,45.00
2023-05-11T17:36:26.773Z,45.00
2023-05-11T17:37:31.773Z,45.00
2023-05-11T17:38:27.647Z,39.38
2023-05-11T17:39:28.086Z,39.38
2023-05-11T17:40:28.535Z,39.38
2023-05-11T17:41:28.964Z,39.38
2023-05-11T17:42:29.410Z,39.38
2023-05-11T17:43:29.830Z,33.75
2023-05-11T17:44:30.278Z,33.75
2023-05-11T17:45:30.730Z,33.75
2023-05-11T17:46:31.241Z,33.75
2023-05-11T17:47:31.623Z,28.13
2023-05-11T17:48:32.022Z,28.13
2023-05-11T17:49:32.453Z,28.13
2023-05-11T17:50:32.888Z,28.13
2023-05-11T17:51:33.327Z,28.13
2023-05-11T17:52:33.769Z,28.13
2023-05-11T17:53:34.231Z,22.50
2023-05-11T17:54:34.641Z,22.50
2023-05-11T17:55:35.880Z,22.50
2023-05-11T17:56:35.533Z,22.50
2023-05-11T17:57:35.949Z,16.88
2023-05-11T17:58:36.386Z,16.88
2023-05-11T17:59:36.828Z,16.88
2023-05-11T18:00:37.263Z,16.88
2023-05-11T18:01:37.761Z,16.88
2023-05-11T18:02:38.261Z,16.88
2023-05-11T18:03:38.735Z,16.88
2023-05-11T18:04:39.019Z,16.88
2023-05-11T18:05:48.664Z,16.88
2023-05-11T18:06:39.877Z,16.88
2023-05-11T18:07:40.319Z,16.88
2023-05-11T18:08:40.755Z,16.88
2023-05-11T18:09:41.190Z,16.88
2023-05-11T18:10:41.623Z,16.88
2023-05-11T18:11:42.061Z,16.88
2023-05-11T18:12:42.499Z,16.88
2023-05-11T18:13:42.933Z,16.88
2023-05-11T18:14:43.378Z,11.25
2023-05-11T18:15:43.840Z,11.25
2023-05-11T18:16:44.244Z,11.25
2023-05-11T18:17:44.721Z,11.25
2023-05-11T18:18:45.239Z,11.25
2023-05-11T18:19:45.551Z,11.25
2023-05-11T18:20:45.992Z,11.25
2023-05-11T18:21:46.431Z,11.25
2023-05-11T18:22:46.869Z,11.25
2023-05-11T18:23:47.303Z,11.25
2023-05-11T18:24:47.756Z,5.63
2023-05-11T18:25:48.176Z,5.63
2023-05-11T18:26:48.611Z,5.63
2023-05-11T18:27:49.046Z,5.63
2023-05-11T18:28:49.484Z,5.63
2023-05-11T18:29:49.922Z,5.63
2023-05-11T18:30:50.354Z,5.63
2023-05-11T18:31:50.830Z,5.63
2023-05-11T18:32:51.256Z,5.63
2023-05-11T18:33:51.666Z,5.63
2023-05-11T18:34:52.207Z,5.63
2023-05-11T18:35:52.535Z,0.00
2023-05-11T18:36:53.016Z,0.00
2023-05-11T18:37:53.425Z,0.00
2023-05-11T18:38:53.852Z,0.00
2023-05-11T18:39:54.285Z,0.00
2023-05-11T18:40:54.728Z,0.00
2023-05-11T18:41:55.175Z,0.00
2023-05-11T18:42:55.598Z,0.00
2023-05-11T18:43:56.027Z,0.00
2023-05-11T18:44:56.467Z,0.00
2023-05-11T18:45:56.909Z,0.00
2023-05-11T18:46:57.377Z,0.00
2023-05-11T18:47:57.811Z,0.00
2023-05-11T18:48:58.221Z,0.00
2023-05-11T18:49:58.658Z,0.00
2023-05-11T18:50:59.097Z,0.00
2023-05-11T18:51:59.523Z,0.00
2023-05-11T18:52:59.958Z,0.00
2023-05-11T18:54:00.402Z,0.00
2023-05-11T18:55:00.832Z,0.00
2023-05-11T18:56:01.273Z,0.00
2023-05-11T18:57:01.715Z,0.00
2023-05-11T18:58:02.140Z,0.00
2023-05-11T18:59:02.580Z,0.00
2023-05-11T19:00:03.033Z,0.00
2023-05-11T19:01:03.542Z,0.00
2023-05-11T19:02:04.104Z,0.00
2023-05-11T19:03:07.069Z,0.00
2023-05-11T19:04:04.777Z,0.00
2023-05-11T19:05:05.193Z,0.00
2023-05-11T19:06:05.634Z,0.00
2023-05-11T19:07:06.066Z,0.00
2023-05-11T19:08:06.510Z,0.00
2023-05-11T19:09:06.941Z,0.00
2023-05-11T19:10:07.376Z,0.00
2023-05-11T19:11:07.945Z,0.00
2023-05-11T19:12:08.238Z,0.00
2023-05-11T19:13:08.685Z,0.00
2023-05-11T19:14:09.126Z,0.00
2023-05-11T19:15:09.547Z,0.00
2023-05-11T19:16:10.032Z,0.00
2023-05-11T19:17:10.425Z,0.00
2023-05-11T19:18:10.890Z,0.00
2023-05-11T19:19:11.398Z,0.00
2023-05-11T19:20:12.696Z,0.00
2023-05-11T19:21:12.158Z,0.00
2023-05-11T19:22:12.600Z,0.00
2023-05-11T19:23:13.035Z,0.00
2023-05-11T19:24:13.467Z,0.00
2023-05-11T19:25:13.942Z,0.00
2023-05-11T19:26:14.336Z,0.00
2023-05-11T19:27:14.780Z,0.00
2023-05-11T19:28:15.207Z,0.00
2023-05-11T19:29:15.650Z,0.00
2023-05-11T19:30:16.081Z,0.00
2023-05-11T19:31:16.519Z,0.00
2023-05-11T19:32:17.126Z,0.00
2023-05-11T19:33:17.448Z,0.00
2023-05-11T19:34:17.823Z,0.00
2023-05-11T19:35:18.298Z,0.00
2023-05-11T19:36:18.700Z,0.00
2023-05-11T19:37:19.126Z,0.00
2023-05-11T19:38:19.567Z,0.00
2023-05-11T19:39:19.996Z,0.00
2023-05-11T19:40:44.635Z,0.00
2023-05-11T19:41:20.866Z,0.00
2023-05-11T19:42:28.670Z,0.00
2023-05-11T19:43:21.737Z,0.00
2023-05-11T19:44:22.196Z,0.00
2023-05-11T19:45:22.616Z,0.00
2023-05-11T19:46:23.091Z,0.00
2023-05-11T19:47:23.491Z,0.00
2023-05-11T19:48:23.912Z,0.00
2023-05-11T19:49:24.356Z,0.00
2023-05-11T19:50:25.101Z,0.00
2023-05-11T19:51:25.214Z,0.00
2023-05-11T19:52:25.656Z,0.00
2023-05-11T19:53:26.087Z,0.00
2023-05-11T19:54:26.527Z,0.00
2023-05-11T19:55:26.952Z,0.00
2023-05-11T19:56:27.394Z,0.00
2023-05-11T19:57:27.830Z,0.00
2023-05-11T19:58:28.265Z,0.00
2023-05-11T19:59:28.711Z,0.00
2023-05-11T20:00:29.137Z,0.00
2023-05-11T20:01:29.652Z,0.00
2023-05-11T20:02:30.045Z,0.00
2023-05-11T20:03:30.583Z,0.00
2023-05-11T20:04:30.878Z,0.00
2023-05-11T20:05:31.325Z,0.00
2023-05-11T20:06:31.739Z,0.00
2023-05-11T20:07:32.237Z,0.00
2023-05-11T20:08:32.604Z,0.00
2023-05-11T20:09:33.042Z,0.00
2023-05-11T20:10:33.503Z,0.00
2023-05-11T20:11:33.907Z,0.00
2023-05-11T20:12:34.357Z,0.00
2023-05-11T20:13:34.892Z,0.00
2023-05-11T20:14:35.217Z,0.00
2023-05-11T20:15:35.652Z,0.00
2023-05-11T20:16:36.187Z,0.00
2023-05-11T20:17:36.545Z,0.00
2023-05-11T20:18:37.044Z,0.00
2023-05-11T20:19:37.382Z,0.00
2023-05-11T20:20:40.457Z,0.00
2023-05-11T20:21:38.275Z,0.00
2023-05-11T20:22:38.697Z,0.00
2023-05-11T20:23:39.126Z,0.00
2023-05-11T20:24:40.459Z,0.00
2023-05-11T20:25:41.937Z,0.00
2023-05-11T20:26:40.418Z,0.00
2023-05-11T20:27:40.865Z,0.00
2023-05-11T20:29:02.465Z,0.00
2023-05-11T20:29:41.761Z,0.00
2023-05-11T20:30:42.168Z,0.00
2023-05-11T20:31:49.496Z,0.00
2023-05-11T20:34:06.876Z,0.00
2023-05-11T20:35:55.939Z,0.00
2023-05-11T20:40:40.902Z,0.00
2023-05-11T20:42:13.875Z,0.00
2023-05-11T20:42:38.529Z,0.00
2023-05-11T20:45:00.553Z,0.00
2023-05-11T20:51:12.117Z,0.00
2023-05-11T20:56:45.020Z,0.00
2023-05-11T20:57:44.943Z,0.00
2023-05-11T21:00:38.194Z,0.00
2023-05-11T21:02:32.876Z,0.00
2023-05-11T21:03:33.299Z,0.00
2023-05-11T21:05:27.864Z,0.00
2023-05-11T21:06:28.290Z,0.00
2023-05-11T21:07:28.716Z,0.00
2023-05-11T21:08:29.150Z,0.00
2023-05-11T21:09:29.588Z,0.00
2023-05-11T21:10:30.028Z,0.00
2023-05-11T21:11:30.452Z,0.00
2023-05-11T21:12:30.895Z,0.00
2023-05-11T21:13:31.324Z,0.00
2023-05-11T21:14:31.770Z,0.00
2023-05-11T21:15:32.248Z,0.00
2023-05-11T21:16:32.664Z,0.00
2023-05-11T21:17:33.098Z,0.00
2023-05-11T21:18:33.514Z,0.00
2023-05-11T21:19:33.924Z,0.00
2023-05-11T21:20:34.364Z,0.00
2023-05-11T21:21:34.826Z,0.00
2023-05-11T21:22:35.239Z,0.00
2023-05-11T21:23:35.664Z,0.00
2023-05-11T21:24:36.104Z,0.00
2023-05-11T21:25:36.537Z,0.00
2023-05-11T21:26:36.970Z,0.00
2023-05-11T21:27:37.411Z,0.00
2023-05-11T21:28:37.837Z,0.00
2023-05-11T21:29:38.274Z,0.00
2023-05-11T21:30:38.748Z,0.00
2023-05-11T21:31:39.148Z,0.00
2023-05-11T21:32:39.606Z,0.00
2023-05-11T21:33:40.015Z,0.00
2023-05-11T21:34:40.437Z,0.00
2023-05-11T21:35:40.883Z,0.00
2023-05-11T21:36:41.465Z,0.00
2023-05-11T21:37:41.742Z,0.00
2023-05-11T21:38:42.173Z,0.00
2023-05-11T21:39:42.618Z,0.00
2023-05-11T21:40:43.048Z,0.00
2023-05-11T21:41:43.478Z,0.00
2023-05-11T21:42:43.919Z,0.00
2023-05-11T21:43:44.371Z,0.00
2023-05-11T21:44:44.786Z,0.00
2023-05-11T21:45:45.214Z,0.00
2023-05-11T21:46:45.699Z,0.00
2023-05-11T21:47:46.124Z,0.00
2023-05-11T21:48:46.513Z,0.00
2023-05-11T21:49:46.940Z,0.00
2023-05-11T21:50:47.380Z,0.00
2023-05-11T21:51:47.841Z,0.00
2023-05-11T21:52:48.252Z,0.00
2023-05-11T21:53:48.732Z,0.00
2023-05-11T21:54:49.124Z,0.00
2023-05-11T21:55:49.607Z,0.00
2023-05-11T21:56:49.984Z,0.00
2023-05-11T21:57:50.416Z,0.00
2023-05-11T21:58:50.859Z,0.00
2023-05-11T21:59:51.408Z,0.00
2023-05-11T22:00:51.716Z,0.00
2023-05-11T22:01:52.187Z,0.00
2023-05-11T22:02:52.757Z,0.00
2023-05-11T22:03:53.093Z,0.00
2023-05-11T22:04:53.455Z,0.00
2023-05-11T22:05:53.896Z,0.00
2023-05-11T22:06:54.334Z,0.00
2023-05-11T22:08:06.701Z,0.00
2023-05-11T22:08:55.192Z,0.00
2023-05-11T22:09:55.625Z,0.00
2023-05-11T22:10:56.055Z,0.00
2023-05-11T22:11:56.488Z,0.00
2023-05-11T22:12:56.922Z,0.00
2023-05-11T22:13:57.356Z,0.00
2023-05-11T22:14:57.788Z,0.00
2023-05-11T22:15:58.256Z,0.00
2023-05-11T22:16:58.657Z,0.00
2023-05-11T22:17:59.128Z,0.00
2023-05-11T22:18:59.566Z,0.00
2023-05-11T22:19:59.959Z,0.00
2023-05-11T22:21:00.425Z,0.00
2023-05-11T22:22:00.837Z,0.00
2023-05-11T22:23:01.266Z,0.00
2023-05-11T22:24:01.707Z,0.00
2023-05-11T22:25:02.126Z,0.00
2023-05-11T22:26:02.607Z,0.00
2023-05-11T22:27:02.993Z,0.00
2023-05-11T22:28:03.428Z,0.00
2023-05-11T22:29:03.862Z,0.00
2023-05-11T22:30:04.288Z,0.00
2023-05-11T22:31:04.724Z,0.00
2023-05-11T22:32:05.166Z,0.00
2023-05-11T22:33:05.606Z,0.00
2023-05-11T22:34:06.044Z,0.00
2023-05-11T22:35:06.485Z,0.00
2023-05-11T22:36:06.892Z,0.00
2023-05-11T22:37:07.323Z,0.00
2023-05-11T22:38:07.766Z,0.00
2023-05-11T22:39:08.193Z,0.00
2023-05-11T22:40:08.622Z,0.00
2023-05-11T22:41:09.058Z,0.00
2023-05-11T22:42:09.484Z,0.00
2023-05-11T22:43:09.934Z,0.00
2023-05-11T22:44:10.362Z,0.00
2023-05-11T22:45:10.793Z,0.00
2023-05-11T22:46:11.274Z,0.00
2023-05-11T22:47:11.694Z,0.00
2023-05-11T22:48:12.099Z,0.00
2023-05-11T22:49:12.517Z,0.00
2023-05-11T22:50:12.953Z,0.00
2023-05-11T22:51:13.388Z,0.00
2023-05-11T22:52:13.881Z,0.00
2023-05-11T22:53:14.260Z,0.00
2023-05-11T22:54:14.686Z,0.00
2023-05-11T22:55:15.113Z,0.00
2023-05-11T22:56:15.548Z,0.00
2023-05-11T22:57:15.990Z,0.00
2023-05-11T22:58:16.413Z,0.00
2023-05-11T22:59:16.844Z,0.00
2023-05-11T23:00:17.436Z,0.00
2023-05-11T23:01:17.765Z,0.00
2023-05-11T23:02:18.229Z,0.00
2023-05-11T23:03:18.691Z,0.00
2023-05-11T23:04:19.009Z,0.00
2023-05-11T23:05:19.449Z,0.00
2023-05-11T23:06:19.882Z,0.00
2023-05-11T23:07:20.338Z,0.00
2023-05-11T23:08:20.744Z,0.00
2023-05-11T23:09:21.176Z,0.00
2023-05-11T23:10:21.610Z,0.00
2023-05-11T23:11:22.041Z,0.00
2023-05-11T23:12:22.474Z,0.00
2023-05-11T23:13:22.908Z,0.00
2023-05-11T23:14:23.339Z,0.00
2023-05-11T23:15:23.772Z,0.00
2023-05-11T23:16:24.232Z,0.00
2023-05-11T23:17:24.710Z,0.00
2023-05-11T23:18:25.175Z,0.00
2023-05-11T23:19:25.546Z,0.00
2023-05-11T23:20:25.933Z,0.00
2023-05-11T23:21:26.379Z,0.00
2023-05-11T23:22:26.801Z,0.00
2023-05-11T23:23:27.237Z,0.00
2023-05-11T23:24:27.663Z,0.00
2023-05-11T23:25:28.095Z,0.00
2023-05-11T23:26:28.523Z,0.00
2023-05-11T23:27:28.958Z,0.00
2023-05-11T23:28:29.393Z,0.00
2023-05-11T23:29:29.882Z,0.00
2023-05-11T23:30:30.252Z,0.00
2023-05-11T23:31:30.730Z,0.00
2023-05-11T23:32:31.241Z,0.00
2023-05-11T23:33:31.553Z,0.00
2023-05-11T23:34:31.981Z,0.00
2023-05-11T23:35:32.418Z,0.00
2023-05-11T23:36:32.849Z,0.00
2023-05-11T23:37:33.305Z,0.00
2023-05-11T23:38:33.709Z,0.00
2023-05-11T23:39:34.150Z,0.00
2023-05-11T23:40:34.576Z,0.00
2023-05-11T23:41:35.019Z,0.00
2023-05-11T23:42:35.438Z,0.00
2023-05-11T23:43:35.879Z,0.00
2023-05-11T23:44:36.306Z,0.00
2023-05-11T23:45:36.739Z,0.00
2023-05-11T23:46:37.206Z,0.00
2023-05-11T23:47:37.659Z,0.00
2023-05-11T23:48:38.030Z,0.00
2023-05-11T23:49:38.461Z,0.00
2023-05-11T23:50:38.896Z,0.00
2023-05-11T23:51:39.322Z,0.00
2023-05-11T23:52:39.827Z,0.00
2023-05-11T23:53:40.196Z,0.00
2023-05-11T23:54:40.626Z,0.00
2023-05-11T23:55:41.069Z,0.00
2023-05-11T23:56:41.487Z,0.00
2023-05-11T23:57:41.913Z,0.00
2023-05-11T23:58:42.350Z,0.00
2023-05-11T23:59:42.770Z,0.00
